createdAt,value
2018-09-26T00:00:59.841Z,0
2018-09-26T00:02:00.513Z,0
2018-09-26T00:03:01.183Z,0
2018-09-26T00:04:01.852Z,0
2018-09-26T00:05:02.523Z,0
2018-09-26T00:06:03.192Z,0
2018-09-26T00:07:03.861Z,0
2018-09-26T00:08:04.530Z,0
2018-09-26T00:09:05.199Z,0
2018-09-26T00:10:05.878Z,0
2018-09-26T00:11:06.539Z,0
2018-09-26T00:12:07.209Z,0
2018-09-26T00:13:07.876Z,0
2018-09-26T00:14:08.545Z,0
2018-09-26T00:15:09.216Z,0
2018-09-26T00:16:09.885Z,0
2018-09-26T00:17:10.554Z,0
2018-09-26T00:18:11.222Z,0
2018-09-26T00:19:11.892Z,0
2018-09-26T00:20:12.563Z,0
2018-09-26T00:21:13.231Z,0
2018-09-26T00:22:13.900Z,0
2018-09-26T00:23:14.569Z,0
2018-09-26T00:24:15.239Z,0
2018-09-26T00:25:15.907Z,0
2018-09-26T00:26:16.577Z,0
2018-09-26T00:27:17.245Z,0
2018-09-26T00:28:17.916Z,0
2018-09-26T00:29:18.585Z,0
2018-09-26T00:30:19.255Z,0
2018-09-26T00:31:19.923Z,0
2018-09-26T00:32:20.593Z,0
2018-09-26T00:33:21.263Z,0
2018-09-26T00:34:21.937Z,0
2018-09-26T00:35:22.601Z,0
2018-09-26T00:36:23.270Z,0
2018-09-26T00:37:23.962Z,0
2018-09-26T00:38:24.609Z,0
2018-09-26T00:39:25.278Z,0
2018-09-26T00:40:25.946Z,0
2018-09-26T00:41:26.619Z,0
2018-09-26T00:42:27.330Z,0
2018-09-26T00:43:27.999Z,0
2018-09-26T00:44:28.669Z,0
2018-09-26T00:45:29.337Z,0
2018-09-26T00:46:30.006Z,0
2018-09-26T00:47:30.673Z,0
2018-09-26T00:48:31.344Z,0
2018-09-26T00:49:32.057Z,0
2018-09-26T00:50:32.728Z,0
2018-09-26T00:51:33.442Z,0
2018-09-26T00:52:34.111Z,0
2018-09-26T00:53:34.779Z,0
2018-09-26T00:54:35.450Z,0
2018-09-26T00:55:36.117Z,0
2018-09-26T00:56:36.787Z,0
2018-09-26T00:57:37.454Z,0
2018-09-26T00:58:38.124Z,0
2018-09-26T00:59:38.794Z,0
2018-09-26T01:00:39.463Z,0
2018-09-26T01:01:40.133Z,0
2018-09-26T01:02:40.802Z,0
2018-09-26T01:03:41.472Z,0
2018-09-26T01:04:42.141Z,0
2018-09-26T01:05:42.810Z,0
2018-09-26T01:06:43.479Z,0
2018-09-26T01:07:44.149Z,0
2018-09-26T01:08:44.820Z,0
2018-09-26T01:09:45.487Z,0
2018-09-26T01:10:46.157Z,0
2018-09-26T01:11:46.828Z,0
2018-09-26T01:12:47.495Z,0
2018-09-26T01:13:48.163Z,0
2018-09-26T01:14:48.834Z,0
2018-09-26T01:15:49.501Z,0
2018-09-26T01:16:50.170Z,0
2018-09-26T01:17:50.839Z,0
2018-09-26T01:18:51.508Z,0
2018-09-26T01:19:52.177Z,0
2018-09-26T01:20:52.848Z,0
2018-09-26T01:21:53.516Z,0
2018-09-26T01:22:54.231Z,0
2018-09-26T01:23:54.899Z,0
2018-09-26T01:24:55.570Z,0
2018-09-26T01:25:56.238Z,0
2018-09-26T01:26:56.915Z,0
2018-09-26T01:27:57.622Z,0
2018-09-26T01:28:58.294Z,0
2018-09-26T01:29:59.009Z,0
2018-09-26T01:30:59.679Z,0
2018-09-26T01:32:00.348Z,0
2018-09-26T01:33:01.020Z,0
2018-09-26T01:34:01.688Z,0
2018-09-26T01:35:02.362Z,0
2018-09-26T01:36:03.071Z,0
2018-09-26T01:37:03.740Z,0
2018-09-26T01:38:04.410Z,0
2018-09-26T01:39:05.079Z,0
2018-09-26T01:40:05.748Z,0
2018-09-26T01:41:06.417Z,0
2018-09-26T01:42:07.089Z,0
2018-09-26T01:43:07.756Z,0
2018-09-26T01:44:08.425Z,0
2018-09-26T01:45:09.094Z,0
2018-09-26T01:46:09.763Z,0
2018-09-26T01:47:10.434Z,0
2018-09-26T01:48:11.102Z,0
2018-09-26T01:49:11.775Z,0
2018-09-26T01:50:12.441Z,0
2018-09-26T01:51:13.109Z,0
2018-09-26T01:52:13.778Z,0
2018-09-26T01:53:14.447Z,0
2018-09-26T01:54:15.118Z,0
2018-09-26T01:55:15.787Z,0
2018-09-26T01:56:16.456Z,0
2018-09-26T01:57:17.124Z,0
2018-09-26T01:58:17.794Z,0
2018-09-26T01:59:18.463Z,0
2018-09-26T02:00:19.132Z,0
2018-09-26T02:01:19.846Z,0
2018-09-26T02:02:20.518Z,0
2018-09-26T02:03:21.186Z,0
2018-09-26T02:04:21.855Z,0
2018-09-26T02:05:22.526Z,0
2018-09-26T02:06:23.195Z,0
2018-09-26T02:07:23.864Z,0
2018-09-26T02:08:24.533Z,0
2018-09-26T02:09:25.201Z,0
2018-09-26T02:10:25.870Z,0
2018-09-26T02:11:26.539Z,0
2018-09-26T02:12:27.208Z,0
2018-09-26T02:13:27.877Z,0
2018-09-26T02:14:28.545Z,0
2018-09-26T02:15:29.215Z,0
2018-09-26T02:16:29.884Z,0
2018-09-26T02:17:30.554Z,0
2018-09-26T02:18:31.222Z,0
2018-09-26T02:19:31.893Z,0
2018-09-26T02:20:32.561Z,0
2018-09-26T02:21:33.230Z,0
2018-09-26T02:22:33.899Z,0
2018-09-26T02:23:34.572Z,0
2018-09-26T02:24:35.238Z,0
2018-09-26T02:25:35.906Z,0
2018-09-26T02:26:36.575Z,0
2018-09-26T02:27:37.249Z,0
2018-09-26T02:28:37.915Z,0
2018-09-26T02:29:38.583Z,0
2018-09-26T02:30:39.263Z,0
2018-09-26T02:31:39.924Z,0
2018-09-26T02:32:40.591Z,0
2018-09-26T02:33:41.259Z,0
2018-09-26T02:34:41.929Z,0
2018-09-26T02:35:42.600Z,0
2018-09-26T02:36:43.266Z,0
2018-09-26T02:37:43.937Z,0
2018-09-26T02:38:44.649Z,0
2018-09-26T02:39:45.320Z,0
2018-09-26T02:40:46.033Z,0
2018-09-26T02:41:46.746Z,0
2018-09-26T02:42:47.414Z,0
2018-09-26T02:43:48.083Z,0
2018-09-26T02:44:48.753Z,0
2018-09-26T02:45:49.422Z,0
2018-09-26T02:46:50.092Z,0
2018-09-26T02:47:50.760Z,0
2018-09-26T02:48:51.430Z,0
2018-09-26T02:49:52.099Z,0
2018-09-26T02:50:52.767Z,0
2018-09-26T02:51:53.437Z,0
2018-09-26T02:52:54.150Z,0
2018-09-26T02:53:54.820Z,0
2018-09-26T02:54:55.491Z,0
2018-09-26T02:55:56.205Z,0
2018-09-26T02:56:56.874Z,0
2018-09-26T02:57:57.543Z,0
2018-09-26T02:58:58.212Z,0
2018-09-26T02:59:58.883Z,0
2018-09-26T03:00:59.550Z,0
2018-09-26T03:02:00.220Z,0
2018-09-26T03:03:00.889Z,0
2018-09-26T03:04:01.557Z,0
2018-09-26T03:05:02.264Z,0
2018-09-26T03:06:02.894Z,0
2018-09-26T03:07:03.565Z,0
2018-09-26T03:08:04.232Z,0
2018-09-26T03:09:04.901Z,0
2018-09-26T03:10:05.570Z,0
2018-09-26T03:11:06.242Z,0
2018-09-26T03:12:06.910Z,0
2018-09-26T03:13:07.584Z,0
2018-09-26T03:14:08.248Z,0
2018-09-26T03:15:08.919Z,0
2018-09-26T03:16:09.592Z,0
2018-09-26T03:17:10.258Z,0
2018-09-26T03:18:10.928Z,0
2018-09-26T03:19:11.596Z,0
2018-09-26T03:20:12.265Z,0
2018-09-26T03:21:12.946Z,0
2018-09-26T03:22:13.603Z,0
2018-09-26T03:23:14.271Z,0
2018-09-26T03:24:14.989Z,0
2018-09-26T03:25:15.655Z,0
2018-09-26T03:26:16.324Z,0
2018-09-26T03:27:16.993Z,0
2018-09-26T03:28:17.663Z,0
2018-09-26T03:29:18.332Z,0
2018-09-26T03:30:19.001Z,0
2018-09-26T03:31:19.673Z,0
2018-09-26T03:32:20.384Z,0
2018-09-26T03:33:21.056Z,0
2018-09-26T03:34:21.768Z,0
2018-09-26T03:35:22.437Z,0
2018-09-26T03:36:23.106Z,0
2018-09-26T03:37:23.777Z,0
2018-09-26T03:38:24.446Z,0
2018-09-26T03:39:25.117Z,0
2018-09-26T03:40:25.784Z,0
2018-09-26T03:41:26.461Z,0
2018-09-26T03:42:27.122Z,0
2018-09-26T03:43:27.792Z,0
2018-09-26T03:44:28.459Z,0
2018-09-26T03:45:29.134Z,0
2018-09-26T03:46:29.799Z,0
2018-09-26T03:47:30.467Z,0
2018-09-26T03:48:31.137Z,0
2018-09-26T03:49:31.806Z,0
2018-09-26T03:50:32.477Z,0
2018-09-26T03:51:33.148Z,0
2018-09-26T03:52:33.822Z,0
2018-09-26T03:53:34.529Z,0
2018-09-26T03:54:35.200Z,0
2018-09-26T03:55:35.868Z,0
2018-09-26T03:56:36.538Z,0
2018-09-26T03:57:37.210Z,0
2018-09-26T03:58:37.879Z,0
2018-09-26T03:59:38.553Z,0
2018-09-26T04:00:39.218Z,0
2018-09-26T04:01:39.888Z,0
2018-09-26T04:02:40.601Z,0
2018-09-26T04:03:41.271Z,0
2018-09-26T04:04:41.945Z,0
2018-09-26T04:05:42.609Z,0
2018-09-26T04:06:43.276Z,0
2018-09-26T04:07:43.948Z,0
2018-09-26T04:08:44.627Z,0
2018-09-26T04:09:45.286Z,0
2018-09-26T04:10:45.954Z,0
2018-09-26T04:11:46.624Z,0
2018-09-26T04:12:47.388Z,0
2018-09-26T04:13:47.969Z,0
2018-09-26T04:14:48.633Z,0
2018-09-26T04:15:49.406Z,0
2018-09-26T04:16:50.024Z,0
2018-09-26T04:17:50.697Z,0
2018-09-26T04:18:51.407Z,0
2018-09-26T04:19:52.073Z,0
2018-09-26T04:20:52.743Z,0
2018-09-26T04:21:53.413Z,0
2018-09-26T04:22:54.081Z,0
2018-09-26T04:23:54.751Z,0
2018-09-26T04:24:55.423Z,0
2018-09-26T04:25:56.091Z,0
2018-09-26T04:26:57.017Z,0
2018-09-26T04:27:57.431Z,0
2018-09-26T04:28:58.148Z,0
2018-09-26T04:29:58.828Z,0
2018-09-26T04:30:59.487Z,0
2018-09-26T04:32:00.204Z,0
2018-09-26T04:33:01.108Z,0
2018-09-26T04:34:01.543Z,0
2018-09-26T04:35:02.214Z,0
2018-09-26T04:36:02.927Z,0
2018-09-26T04:37:03.597Z,0
2018-09-26T04:38:04.269Z,0
2018-09-26T04:39:04.940Z,4
2018-09-26T04:40:05.606Z,4
2018-09-26T04:41:06.277Z,0
2018-09-26T04:42:06.945Z,4
2018-09-26T04:43:07.621Z,4
2018-09-26T04:44:08.283Z,4
2018-09-26T04:45:08.951Z,8
2018-09-26T04:46:09.620Z,8
2018-09-26T04:47:10.289Z,8
2018-09-26T04:48:10.957Z,8
2018-09-26T04:49:11.628Z,12
2018-09-26T04:50:12.299Z,12
2018-09-26T04:51:12.970Z,12
2018-09-26T04:52:13.641Z,20
2018-09-26T04:53:14.312Z,20
2018-09-26T04:54:15.027Z,24
2018-09-26T04:55:15.698Z,28
2018-09-26T04:56:16.367Z,36
2018-09-26T04:57:17.039Z,36
2018-09-26T04:58:17.741Z,44
2018-09-26T04:59:18.380Z,48
2018-09-26T05:00:19.051Z,56
2018-09-26T05:01:19.723Z,64
2018-09-26T05:02:20.392Z,72
2018-09-26T05:03:21.063Z,84
2018-09-26T05:04:21.734Z,100
2018-09-26T05:05:22.406Z,124
2018-09-26T05:06:23.078Z,136
2018-09-26T05:07:23.771Z,152
2018-09-26T05:08:24.494Z,164
2018-09-26T05:09:25.137Z,176
2018-09-26T05:10:25.809Z,192
2018-09-26T05:11:26.479Z,216
2018-09-26T05:12:27.153Z,240
2018-09-26T05:13:27.824Z,252
2018-09-26T05:14:28.540Z,264
2018-09-26T05:15:29.212Z,272
2018-09-26T05:16:29.882Z,292
2018-09-26T05:17:30.554Z,312
2018-09-26T05:18:31.271Z,340
2018-09-26T05:19:31.943Z,368
2018-09-26T05:20:32.617Z,400
2018-09-26T05:21:33.288Z,428
2018-09-26T05:22:33.961Z,468
2018-09-26T05:23:34.633Z,508
2018-09-26T05:24:35.305Z,552
2018-09-26T05:25:35.978Z,588
2018-09-26T05:26:36.650Z,624
2018-09-26T05:27:37.323Z,656
2018-09-26T05:28:37.996Z,684
2018-09-26T05:29:38.669Z,720
2018-09-26T05:30:39.342Z,760
2018-09-26T05:31:40.014Z,804
2018-09-26T05:32:40.687Z,864
2018-09-26T05:33:41.360Z,936
2018-09-26T05:34:42.034Z,1000
2018-09-26T05:35:42.757Z,1060
2018-09-26T05:36:43.429Z,1112
2018-09-26T05:37:44.100Z,1156
2018-09-26T05:38:44.774Z,1200
2018-09-26T05:39:45.449Z,1248
2018-09-26T05:40:46.121Z,1292
2018-09-26T05:41:46.858Z,1312
2018-09-26T05:42:47.512Z,1328
2018-09-26T05:43:48.180Z,1356
2018-09-26T05:44:48.855Z,1400
2018-09-26T05:45:49.529Z,1448
2018-09-26T05:46:50.203Z,1488
2018-09-26T05:47:50.878Z,1536
2018-09-26T05:48:51.555Z,1568
2018-09-26T05:49:52.224Z,1600
2018-09-26T05:50:52.899Z,1636
2018-09-26T05:51:53.573Z,1668
2018-09-26T05:52:54.245Z,1704
2018-09-26T05:53:54.925Z,1736
2018-09-26T05:54:55.594Z,1764
2018-09-26T05:55:56.312Z,1788
2018-09-26T05:56:56.986Z,1808
2018-09-26T05:57:57.661Z,1832
2018-09-26T05:58:58.333Z,1844
2018-09-26T05:59:59.007Z,1856
2018-09-26T06:00:59.680Z,1876
2018-09-26T06:02:00.354Z,1900
2018-09-26T06:03:01.031Z,1924
2018-09-26T06:04:01.702Z,1936
2018-09-26T06:05:02.378Z,1940
2018-09-26T06:06:03.096Z,1948
2018-09-26T06:07:03.813Z,1944
2018-09-26T06:08:04.488Z,1952
2018-09-26T06:09:05.160Z,1952
2018-09-26T06:10:05.832Z,1948
2018-09-26T06:11:06.506Z,1928
2018-09-26T06:12:07.180Z,1880
2018-09-26T06:13:07.903Z,1840
2018-09-26T06:14:08.565Z,1792
2018-09-26T06:15:09.287Z,1748
2018-09-26T06:16:09.960Z,1692
2018-09-26T06:17:10.633Z,1632
2018-09-26T06:18:11.312Z,1596
2018-09-26T06:19:12.027Z,1592
2018-09-26T06:20:12.702Z,1620
2018-09-26T06:21:13.375Z,1704
2018-09-26T06:22:14.048Z,1780
2018-09-26T06:23:14.720Z,1844
2018-09-26T06:24:15.394Z,1864
2018-09-26T06:25:16.069Z,1820
2018-09-26T06:26:16.747Z,1792
2018-09-26T06:27:17.417Z,1808
2018-09-26T06:28:18.090Z,1852
2018-09-26T06:29:18.764Z,1864
2018-09-26T06:30:19.437Z,1864
2018-09-26T06:31:20.111Z,1892
2018-09-26T06:32:20.788Z,1896
2018-09-26T06:33:21.507Z,1888
2018-09-26T06:34:22.177Z,1920
2018-09-26T06:35:22.853Z,1976
2018-09-26T06:36:23.527Z,2000
2018-09-26T06:37:24.203Z,1996
2018-09-26T06:38:24.879Z,1952
2018-09-26T06:39:25.548Z,1940
2018-09-26T06:40:26.286Z,1928
2018-09-26T06:41:26.992Z,1936
2018-09-26T06:42:27.673Z,1952
2018-09-26T06:43:28.338Z,1976
2018-09-26T06:44:29.016Z,2000
2018-09-26T06:45:29.688Z,1980
2018-09-26T06:46:30.363Z,1920
2018-09-26T06:47:31.044Z,1916
2018-09-26T06:48:31.710Z,1936
2018-09-26T06:49:32.383Z,1960
2018-09-26T06:50:33.057Z,1988
2018-09-26T06:51:33.731Z,2028
2018-09-26T06:52:34.404Z,2088
2018-09-26T06:53:35.079Z,2112
2018-09-26T06:54:35.753Z,2176
2018-09-26T06:55:36.425Z,2208
2018-09-26T06:56:37.100Z,2244
2018-09-26T06:57:37.774Z,2276
2018-09-26T06:58:38.445Z,2312
2018-09-26T06:59:39.123Z,2356
2018-09-26T07:00:39.798Z,2416
2018-09-26T07:01:40.470Z,2492
2018-09-26T07:02:41.144Z,2568
2018-09-26T07:03:41.819Z,2656
2018-09-26T07:04:42.492Z,2748
2018-09-26T07:05:43.171Z,2836
2018-09-26T07:06:43.888Z,2912
2018-09-26T07:07:44.562Z,2960
2018-09-26T07:08:45.235Z,3004
2018-09-26T07:09:45.911Z,2992
2018-09-26T07:10:46.582Z,2940
2018-09-26T07:11:47.256Z,2896
2018-09-26T07:12:47.971Z,2848
2018-09-26T07:13:48.649Z,2824
2018-09-26T07:14:49.321Z,2808
2018-09-26T07:15:49.997Z,2780
2018-09-26T07:16:50.672Z,2816
2018-09-26T07:17:51.347Z,2868
2018-09-26T07:18:52.020Z,2936
2018-09-26T07:19:52.693Z,3012
2018-09-26T07:20:53.366Z,3064
2018-09-26T07:21:54.041Z,3128
2018-09-26T07:22:54.714Z,3196
2018-09-26T07:23:55.399Z,3268
2018-09-26T07:24:56.064Z,3304
2018-09-26T07:25:56.738Z,3332
2018-09-26T07:26:57.412Z,3356
2018-09-26T07:27:58.090Z,3380
2018-09-26T07:28:58.762Z,3392
2018-09-26T07:29:59.436Z,3404
2018-09-26T07:31:00.110Z,3468
2018-09-26T07:32:00.785Z,3556
2018-09-26T07:33:01.460Z,3680
2018-09-26T07:34:02.139Z,3820
2018-09-26T07:35:02.812Z,3944
2018-09-26T07:36:03.533Z,4080
2018-09-26T07:37:04.209Z,4196
2018-09-26T07:38:04.886Z,4320
2018-09-26T07:39:05.564Z,4356
2018-09-26T07:40:06.241Z,4380
2018-09-26T07:41:06.964Z,4432
2018-09-26T07:42:07.640Z,4464
2018-09-26T07:43:08.318Z,4464
2018-09-26T07:44:08.996Z,4544
2018-09-26T07:45:09.672Z,4556
2018-09-26T07:46:10.350Z,4724
2018-09-26T07:47:11.030Z,4788
2018-09-26T07:48:11.756Z,4772
2018-09-26T07:49:12.433Z,4944
2018-09-26T07:50:13.110Z,5028
2018-09-26T07:51:13.834Z,4888
2018-09-26T07:52:14.555Z,4988
2018-09-26T07:53:15.234Z,4852
2018-09-26T07:54:15.913Z,4920
2018-09-26T07:55:16.590Z,4984
2018-09-26T07:56:17.268Z,4904
2018-09-26T07:57:17.946Z,4988
2018-09-26T07:58:18.628Z,4960
2018-09-26T07:59:19.306Z,4912
2018-09-26T08:00:19.984Z,4756
2018-09-26T08:01:20.664Z,4856
2018-09-26T08:02:21.341Z,4696
2018-09-26T08:03:22.021Z,4556
2018-09-26T08:04:22.699Z,4512
2018-09-26T08:05:23.378Z,4500
2018-09-26T08:06:24.059Z,4468
2018-09-26T08:07:24.738Z,4408
2018-09-26T08:08:25.418Z,4412
2018-09-26T08:09:26.099Z,4440
2018-09-26T08:10:26.780Z,4460
2018-09-26T08:11:27.523Z,4564
2018-09-26T08:12:28.140Z,4632
2018-09-26T08:13:28.820Z,4596
2018-09-26T08:14:29.502Z,4604
2018-09-26T08:15:30.228Z,4644
2018-09-26T08:16:30.910Z,4720
2018-09-26T08:17:31.590Z,4812
2018-09-26T08:18:32.331Z,4708
2018-09-26T08:19:32.953Z,4732
2018-09-26T08:20:33.635Z,4764
2018-09-26T08:21:34.315Z,4768
2018-09-26T08:22:34.994Z,4776
2018-09-26T08:23:35.730Z,4592
2018-09-26T08:24:36.357Z,4648
2018-09-26T08:25:37.039Z,4564
2018-09-26T08:26:37.721Z,4540
2018-09-26T08:27:38.403Z,4608
2018-09-26T08:28:39.085Z,4596
2018-09-26T08:29:39.772Z,4592
2018-09-26T08:30:40.449Z,4592
2018-09-26T08:31:41.130Z,4588
2018-09-26T08:32:41.814Z,4472
2018-09-26T08:33:42.496Z,4512
2018-09-26T08:34:43.177Z,4304
2018-09-26T08:35:43.860Z,4328
2018-09-26T08:36:44.541Z,4600
2018-09-26T08:37:45.224Z,4596
2018-09-26T08:38:45.906Z,4520
2018-09-26T08:39:46.588Z,4460
2018-09-26T08:40:47.272Z,4368
2018-09-26T08:41:47.954Z,4388
2018-09-26T08:42:48.637Z,4360
2018-09-26T08:43:49.363Z,4400
2018-09-26T08:44:50.008Z,4420
2018-09-26T08:45:50.689Z,4368
2018-09-26T08:46:51.372Z,4640
2018-09-26T08:47:52.056Z,4660
2018-09-26T08:48:52.783Z,4652
2018-09-26T08:49:53.464Z,4692
2018-09-26T08:50:54.148Z,4720
2018-09-26T08:51:54.833Z,4728
2018-09-26T08:52:55.517Z,4676
2018-09-26T08:53:56.201Z,4632
2018-09-26T08:54:56.883Z,4528
2018-09-26T08:55:57.613Z,4432
2018-09-26T08:56:58.299Z,4680
2018-09-26T08:57:58.984Z,4700
2018-09-26T08:58:59.667Z,4800
2018-09-26T09:00:00.349Z,4824
2018-09-26T09:01:01.034Z,4840
2018-09-26T09:02:01.761Z,4728
2018-09-26T09:03:02.447Z,4852
2018-09-26T09:04:03.131Z,4832
2018-09-26T09:05:03.813Z,4756
2018-09-26T09:06:04.536Z,4980
2018-09-26T09:07:05.179Z,5116
2018-09-26T09:08:05.863Z,5164
2018-09-26T09:09:06.547Z,5228
2018-09-26T09:10:07.275Z,5296
2018-09-26T09:11:07.958Z,5328
2018-09-26T09:12:08.641Z,5436
2018-09-26T09:13:09.326Z,5516
2018-09-26T09:14:10.026Z,5620
2018-09-26T09:15:10.694Z,5652
2018-09-26T09:16:11.377Z,5700
2018-09-26T09:17:12.061Z,5648
2018-09-26T09:18:12.747Z,5456
2018-09-26T09:19:13.474Z,5504
2018-09-26T09:20:14.213Z,5376
2018-09-26T09:21:14.842Z,5192
2018-09-26T09:22:15.525Z,5068
2018-09-26T09:23:16.209Z,4936
2018-09-26T09:24:16.892Z,5156
2018-09-26T09:25:17.575Z,5164
2018-09-26T09:26:18.296Z,5080
2018-09-26T09:27:18.998Z,5184
2018-09-26T09:28:19.627Z,5452
2018-09-26T09:29:20.311Z,5436
2018-09-26T09:30:20.994Z,5308
2018-09-26T09:31:21.681Z,5356
2018-09-26T09:32:22.460Z,5148
2018-09-26T09:33:23.093Z,4712
2018-09-26T09:34:23.821Z,4588
2018-09-26T09:35:24.504Z,4660
2018-09-26T09:36:25.216Z,4636
2018-09-26T09:37:25.919Z,4724
2018-09-26T09:38:26.603Z,4580
2018-09-26T09:39:27.286Z,4656
2018-09-26T09:40:27.973Z,4676
2018-09-26T09:41:28.702Z,4812
2018-09-26T09:42:29.386Z,4860
2018-09-26T09:43:30.069Z,4716
2018-09-26T09:44:30.818Z,4688
2018-09-26T09:45:31.435Z,4764
2018-09-26T09:46:32.166Z,4684
2018-09-26T09:47:32.853Z,4628
2018-09-26T09:48:33.533Z,4444
2018-09-26T09:49:34.215Z,4228
2018-09-26T09:50:34.899Z,4072
2018-09-26T09:51:35.676Z,3800
2018-09-26T09:52:36.270Z,3804
2018-09-26T09:53:36.949Z,3680
2018-09-26T09:54:37.679Z,3924
2018-09-26T09:55:38.361Z,4168
2018-09-26T09:56:39.049Z,4284
2018-09-26T09:57:39.730Z,4288
2018-09-26T09:58:40.412Z,4364
2018-09-26T09:59:41.112Z,4320
2018-09-26T10:00:41.781Z,4136
2018-09-26T10:01:42.464Z,4116
2018-09-26T10:02:43.191Z,3880
2018-09-26T10:03:43.842Z,3700
2018-09-26T10:04:44.511Z,3744
2018-09-26T10:05:45.195Z,3820
2018-09-26T10:06:45.877Z,3892
2018-09-26T10:07:46.559Z,3980
2018-09-26T10:08:47.292Z,3984
2018-09-26T10:09:47.925Z,3936
2018-09-26T10:10:48.607Z,4052
2018-09-26T10:11:49.289Z,4136
2018-09-26T10:12:49.973Z,4240
2018-09-26T10:13:50.658Z,4356
2018-09-26T10:14:51.384Z,4412
2018-09-26T10:15:52.113Z,4424
2018-09-26T10:16:52.795Z,4444
2018-09-26T10:17:53.478Z,4512
2018-09-26T10:18:54.161Z,4548
2018-09-26T10:19:54.845Z,4544
2018-09-26T10:20:55.527Z,4464
2018-09-26T10:21:56.208Z,4568
2018-09-26T10:22:56.891Z,4548
2018-09-26T10:23:57.574Z,4584
2018-09-26T10:24:58.302Z,4544
2018-09-26T10:25:58.937Z,4560
2018-09-26T10:26:59.618Z,4676
2018-09-26T10:28:00.350Z,4664
2018-09-26T10:29:01.078Z,4676
2018-09-26T10:30:01.760Z,4764
2018-09-26T10:31:02.442Z,4808
2018-09-26T10:32:03.123Z,4896
2018-09-26T10:33:03.807Z,5016
2018-09-26T10:34:04.489Z,5116
2018-09-26T10:35:05.274Z,5096
2018-09-26T10:36:05.852Z,5160
2018-09-26T10:37:06.532Z,5120
2018-09-26T10:38:07.224Z,5312
2018-09-26T10:39:07.943Z,5312
2018-09-26T10:40:08.626Z,4836
2018-09-26T10:41:09.306Z,4992
2018-09-26T10:42:09.987Z,4984
2018-09-26T10:43:10.670Z,5032
2018-09-26T10:44:11.411Z,5284
2018-09-26T10:45:12.072Z,5244
2018-09-26T10:46:12.752Z,5300
2018-09-26T10:47:13.436Z,5296
2018-09-26T10:48:14.117Z,5324
2018-09-26T10:49:14.801Z,5236
2018-09-26T10:50:15.580Z,5284
2018-09-26T10:51:16.241Z,5252
2018-09-26T10:52:16.941Z,5308
2018-09-26T10:53:17.668Z,5408
2018-09-26T10:54:18.349Z,5372
2018-09-26T10:55:19.031Z,5428
2018-09-26T10:56:19.759Z,5576
2018-09-26T10:57:20.396Z,5728
2018-09-26T10:58:21.081Z,5756
2018-09-26T10:59:21.809Z,5828
2018-09-26T11:00:22.486Z,5424
2018-09-26T11:01:23.169Z,6024
2018-09-26T11:02:23.917Z,6268
2018-09-26T11:03:24.536Z,6284
2018-09-26T11:04:25.316Z,6228
2018-09-26T11:05:25.901Z,6332
2018-09-26T11:06:26.625Z,6528
2018-09-26T11:07:27.306Z,6224
2018-09-26T11:08:27.999Z,6060
2018-09-26T11:09:28.672Z,6304
2018-09-26T11:10:29.355Z,6132
2018-09-26T11:11:30.040Z,6676
2018-09-26T11:12:30.778Z,6712
2018-09-26T11:13:31.403Z,6576
2018-09-26T11:14:32.088Z,6468
2018-09-26T11:15:32.771Z,6488
2018-09-26T11:16:33.453Z,6576
2018-09-26T11:17:34.136Z,6344
2018-09-26T11:18:34.819Z,6432
2018-09-26T11:19:35.502Z,6748
2018-09-26T11:20:36.183Z,6864
2018-09-26T11:21:36.867Z,6876
2018-09-26T11:22:37.550Z,7112
2018-09-26T11:23:38.233Z,7240
2018-09-26T11:24:38.915Z,7164
2018-09-26T11:25:39.596Z,7368
2018-09-26T11:26:40.311Z,7672
2018-09-26T11:27:40.963Z,7784
2018-09-26T11:28:41.693Z,7480
2018-09-26T11:29:42.376Z,7624
2018-09-26T11:30:43.058Z,7520
2018-09-26T11:31:43.742Z,7284
2018-09-26T11:32:44.426Z,6532
2018-09-26T11:33:45.210Z,6708
2018-09-26T11:34:45.837Z,6672
2018-09-26T11:35:46.563Z,6736
2018-09-26T11:36:47.245Z,6696
2018-09-26T11:37:47.932Z,6524
2018-09-26T11:38:48.612Z,6548
2018-09-26T11:39:49.296Z,6856
2018-09-26T11:40:49.978Z,6896
2018-09-26T11:41:50.662Z,7052
2018-09-26T11:42:51.343Z,6704
2018-09-26T11:43:52.026Z,6624
2018-09-26T11:44:52.708Z,6596
2018-09-26T11:45:53.390Z,6504
2018-09-26T11:46:54.075Z,6228
2018-09-26T11:47:54.758Z,6588
2018-09-26T11:48:55.440Z,6488
2018-09-26T11:49:56.123Z,6716
2018-09-26T11:50:56.853Z,6564
2018-09-26T11:51:57.539Z,6380
2018-09-26T11:52:58.218Z,6204
2018-09-26T11:53:58.901Z,6616
2018-09-26T11:54:59.584Z,6732
2018-09-26T11:56:00.334Z,6828
2018-09-26T11:57:00.988Z,6728
2018-09-26T11:58:01.791Z,7068
2018-09-26T11:59:02.417Z,7532
2018-09-26T12:00:03.147Z,7512
2018-09-26T12:01:03.829Z,7388
2018-09-26T12:02:04.553Z,7376
2018-09-26T12:03:05.194Z,7016
2018-09-26T12:04:05.878Z,7104
2018-09-26T12:05:06.561Z,7376
2018-09-26T12:06:07.290Z,6760
2018-09-26T12:07:07.985Z,6732
2018-09-26T12:08:08.655Z,6072
2018-09-26T12:09:09.293Z,5724
2018-09-26T12:10:10.033Z,5632
2018-09-26T12:11:10.697Z,5708
2018-09-26T12:12:11.452Z,5452
2018-09-26T12:13:12.108Z,5188
2018-09-26T12:14:12.829Z,5124
2018-09-26T12:15:13.509Z,4932
2018-09-26T12:16:14.236Z,4948
2018-09-26T12:17:14.870Z,5024
2018-09-26T12:18:15.605Z,5036
2018-09-26T12:19:16.283Z,4896
2018-09-26T12:20:16.921Z,4880
2018-09-26T12:21:30.251Z,4992
2018-09-26T12:22:18.371Z,4944
2018-09-26T12:23:18.968Z,5032
2018-09-26T12:24:19.735Z,5172
2018-09-26T12:25:20.375Z,5264
2018-09-26T12:26:21.017Z,5380
2018-09-26T12:27:21.701Z,5612
2018-09-26T12:28:22.450Z,6012
2018-09-26T12:29:23.067Z,6340
2018-09-26T12:30:23.826Z,6276
2018-09-26T12:31:24.434Z,6416
2018-09-26T12:32:25.116Z,6636
2018-09-26T12:33:25.797Z,7060
2018-09-26T12:34:26.569Z,7272
2018-09-26T12:35:27.211Z,7036
2018-09-26T12:36:27.979Z,7520
2018-09-26T12:37:28.614Z,7480
2018-09-26T12:38:29.297Z,7520
2018-09-26T12:39:29.980Z,7272
2018-09-26T12:40:30.663Z,6588
2018-09-26T12:41:31.346Z,6744
2018-09-26T12:42:32.059Z,6800
2018-09-26T12:43:32.713Z,6848
2018-09-26T12:44:33.396Z,6892
2018-09-26T12:45:34.079Z,7544
2018-09-26T12:46:34.773Z,8148
2018-09-26T12:47:35.493Z,7844
2018-09-26T12:48:36.275Z,7540
2018-09-26T12:49:36.905Z,7364
2018-09-26T12:50:37.585Z,6920
2018-09-26T12:51:38.268Z,6564
2018-09-26T12:52:38.951Z,6768
2018-09-26T12:53:39.733Z,6264
2018-09-26T12:54:40.318Z,6100
2018-09-26T12:55:41.000Z,5908
2018-09-26T12:56:41.687Z,5944
2018-09-26T12:57:42.365Z,5912
2018-09-26T12:58:43.049Z,5468
2018-09-26T12:59:43.736Z,5940
2018-09-26T13:00:44.538Z,5912
2018-09-26T13:01:45.183Z,5944
2018-09-26T13:02:45.914Z,5676
2018-09-26T13:03:46.553Z,5828
2018-09-26T13:04:47.235Z,6584
2018-09-26T13:05:47.919Z,6288
2018-09-26T13:06:48.601Z,7700
2018-09-26T13:07:49.285Z,7116
2018-09-26T13:08:49.968Z,7004
2018-09-26T13:09:50.692Z,6080
2018-09-26T13:10:51.381Z,5688
2018-09-26T13:11:52.064Z,5440
2018-09-26T13:12:52.748Z,5444
2018-09-26T13:13:53.430Z,5260
2018-09-26T13:14:54.150Z,5316
2018-09-26T13:15:54.843Z,5248
2018-09-26T13:16:55.527Z,5400
2018-09-26T13:17:56.209Z,5272
2018-09-26T13:18:56.923Z,5196
2018-09-26T13:19:57.577Z,5340
2018-09-26T13:20:58.263Z,5304
2018-09-26T13:21:58.941Z,5268
2018-09-26T13:22:59.624Z,5208
2018-09-26T13:24:00.306Z,4872
2018-09-26T13:25:01.037Z,5008
2018-09-26T13:26:01.723Z,4992
2018-09-26T13:27:02.448Z,4960
2018-09-26T13:28:03.131Z,5180
2018-09-26T13:29:03.814Z,5492
2018-09-26T13:30:04.521Z,5516
2018-09-26T13:31:05.200Z,5396
2018-09-26T13:32:05.884Z,5268
2018-09-26T13:33:06.542Z,5096
2018-09-26T13:34:07.322Z,5160
2018-09-26T13:35:07.992Z,5060
2018-09-26T13:36:08.711Z,5308
2018-09-26T13:37:09.356Z,5656
2018-09-26T13:38:10.043Z,5496
2018-09-26T13:39:10.890Z,5692
2018-09-26T13:40:11.475Z,6152
2018-09-26T13:41:12.125Z,6188
2018-09-26T13:42:12.821Z,6216
2018-09-26T13:43:13.493Z,6288
2018-09-26T13:44:14.225Z,6192
2018-09-26T13:45:14.894Z,6664
2018-09-26T13:46:15.631Z,6532
2018-09-26T13:47:16.260Z,6444
2018-09-26T13:48:16.985Z,6236
2018-09-26T13:49:17.624Z,6372
2018-09-26T13:50:18.383Z,6416
2018-09-26T13:51:18.989Z,6384
2018-09-26T13:52:19.689Z,6408
2018-09-26T13:53:20.391Z,6504
2018-09-26T13:54:21.119Z,6852
2018-09-26T13:55:21.758Z,7032
2018-09-26T13:56:22.464Z,7064
2018-09-26T13:57:23.122Z,6772
2018-09-26T13:58:23.886Z,6468